Mount Storm, West Virginia
Current Conditions -  °F | °C
As of 9:15 PM on Saturday 25 Oct 2014 (Local Time) from KW99 Reporting Station
Clear Clear  
Wind Chill: 65°   Ceiling: Unl
Heat Index: 65°   Visibility: 10mi
Dew Point: 45°   Wind: 18mph
Humidity: 48%   Direction: 270°W
Pressure: 29.78"   Gusts: NA
Location:  39.28°N, 79.24°W
Report Text: KW99 260115Z AUTO 27016KT 10SM CLR 18/07 A2978 RMK AO2 T01840073
Loading
Personal Weather Stations






























Interactive Weather Map New forecast layout! Learn more

10-Day Weather Forecast

Advertisements
Track Severe Weather on mobile